Flight Track Log - Related Links

Times and Time Zones

All times are in EST time to prevent confusion due to time zone crossing. See the PDT4129 flight status page for this flight to view local times or setup timezone preferences in your user account.

Time Position Orientation Groundspeed Altitude Reporting Facility
EST Latitude Longitude Course Direction KTS MPH feet Rate Location/Type
Wed 08:16:44 AM 35.7219 -77.4775 283° West 261 300 5,000  Level Washington Center
Wed 08:17:44 AM 35.7314 -77.5289 283° West 241 277 6,100 1,091 Climbing Washington Center
Wed 08:18:45 AM 35.7367 -77.5906 276° West 212 244 7,200 1,041 Climbing Washington Center
Wed 08:19:45 AM 35.7442 -77.6494 279° West 192 221 8,200 1,050 Climbing Washington Center
Wed 08:20:45 AM 35.7514 -77.7086 279° West 184 212 9,300 942 Climbing Washington Center
Wed 08:21:46 AM 35.7564 -77.7753 275° West 179 206 10,100 353 Climbing Washington Center
Wed 08:22:44 AM 35.7636 -77.8422 278° West 190 219 10,000 -158 Descending Washington Center
Wed 08:23:02 AM 35.7653 -77.8625 276° West 214 246 9,900  Descending Washington Center
Wed 08:23:44 AM 35.7728 -77.9114 281° West 202 232 10,000  Climbing Washington Center
Wed 08:23:50 AM 35.7703 -77.9217 253° West 219 252 9,900  Descending Washington Center
Wed 08:24:45 AM 35.7797 -77.9833 281° West 214 246 10,000 53 Climbing Washington Center
Wed 08:25:43 AM 35.7864 -78.0628 276° West 217 250 10,000 50 Level Washington Center
Wed 08:26:44 AM 35.7889 -78.1347 272° West 221 254 10,100 -90 Climbing Washington Center
Wed 08:26:50 AM 35.7867 -78.1500 260° West 223 257 9,900 -100 Descending Washington Center
Wed 08:27:44 AM 35.7894 -78.2064 273° West 221 254 10,000  Climbing Washington Center
Wed 08:27:51 AM 35.7892 -78.2242 269° West 221 254 9,900  Descending Washington Center
Wed 08:28:45 AM 35.7919 -78.2833 273° West 214 246 10,000  Climbing Washington Center
Wed 08:28:54 AM 35.7894 -78.2986 259° West 220 253 9,900 -87 Descending Washington Center
Wed 08:29:54 AM 35.7919 -78.3731 272° West 221 254 9,900 54 Level Washington Center
Wed 08:30:46 AM 35.7947 -78.4319 273° West 219 252 10,000 98 Climbing Washington Center
Wed 08:30:55 AM 35.7922 -78.4522 261° West 223 257 10,000 -98 Level Washington Center
Wed 08:31:47 AM 35.7950 -78.5114 273° West 226 260 9,900  Descending Washington Center
Wed 08:31:53 AM 35.7925 -78.5292 260° West 224 258 10,000  Climbing Washington Center
Wed 08:32:44 AM 35.7975 -78.5831 277° West 226 260 9,900  Descending Washington Center
Wed 08:32:56 AM 35.7947 -78.6111 263° West 225 259 10,000 83 Climbing Washington Center
Wed 08:33:56 AM 35.7969 -78.6856 272° West 225 259 10,000  Level Washington Center
Wed 08:35:58 AM 35.8011 -78.8444 311° West 226 260 10,000  Level Washington Center
Wed 08:37:05 AM 35.8008 -78.9264 270° West 227 261 10,000  Level Washington Center
Wed 08:38:12 AM 35.8028 -79.0083 272° West 225 259 10,000  Level Washington Center
Wed 08:39:04 AM 35.8025 -79.0828 270° West 224 258 10,000  Level Washington Center
Wed 08:40:13 AM 35.8064 -79.1700 273° West 223 257 10,000 -65 Level Washington Center
Wed 08:52:56 AM 35.8108 -80.1467 211° Southwest 243 280 9,100 -73 Descending Atlanta Center
Wed 08:53:00 AM 35.8007 -80.1064 270° West  Level FlightAware Approximate
Wed 08:53:50 AM 35.8111 -80.2233 270° West 249 287 9,000  Level Atlanta Center
Wed 08:54:00 AM 35.8006 -80.1796 270° West  Level FlightAware Approximate
Wed 08:54:27 AM 35.8125 -80.2667 272° West 242 278 9,000  Level Atlanta Center
Wed 08:55:00 AM 35.8004 -80.2528 270° West  Level FlightAware Approximate
Wed 08:55:28 AM 35.8111 -80.3539 269° West 237 273 9,000  Level Atlanta Center
Wed 08:56:00 AM 35.8003 -80.3260 270° West  Level FlightAware Approximate
Wed 08:56:28 AM 35.8072 -80.4333 267° West 237 273 9,000  Level Atlanta Center
Wed 08:57:00 AM 35.8001 -80.3992 270° West  Level FlightAware Approximate
Wed 08:57:35 AM 35.7503 -80.4872 218° Southwest 250 288 9,000  Level Atlanta Center
Wed 08:58:00 AM 35.7730 -80.4536 211° Southwest  Level FlightAware Approximate
Wed 08:58:36 AM 35.6933 -80.5383 216° Southwest 248 285 9,000  Level Atlanta Center
Wed 08:59:37 AM 35.6322 -80.5894 214° Southwest 246 283 9,000  Level Atlanta Center
Wed 09:00:38 AM 35.5750 -80.6353 213° Southwest 245 282 9,000  Level Atlanta Center
Wed 09:01:38 AM 35.5200 -80.6808 214° Southwest 246 283 9,000  Level Atlanta Center
Wed 09:02:39 AM 35.4631 -80.7292 215° Southwest 246 283 9,000  Level Atlanta Center
Wed 09:03:40 AM 35.4078 -80.7747 214° Southwest 246 283 9,000  Level Atlanta Center
Wed 09:04:41 AM 35.3506 -80.8228 214° Southwest 244 281 9,000  Level Atlanta Center
Wed 09:05:54 AM 35.2628 -80.8158 176° South 255 293 9,000  Level Atlanta Center
Wed 09:06:48 AM 35.2000 -80.8108 176° South 244 281 9,000 -835 Level Atlanta Center
Wed 09:07:49 AM 35.1394 -80.8031 174° South 208 239 7,400 -1,525 Descending Atlanta Center
Wed 09:08:50 AM 35.0850 -80.7950 173° South 199 229 5,900 -1,707 Descending Atlanta Center
Wed 09:09:45 AM 35.0325 -80.7894 175° South 199 229 4,100 -991 Descending Atlanta Center
Wed 09:10:45 AM 35.0089 -80.8333 237° Southwest 188 216 4,000 -50 Descending Atlanta Center
Wed 09:11:46 AM 35.0083 -80.8969 269° West 192 221 4,000  Level Atlanta Center
Wed 09:12:47 AM 35.0547 -80.9206 337° Northwest 177 204 4,000 -590 Level Atlanta Center
Wed 09:13:48 AM 35.1050 -80.9286 353° North 164 189 2,800 -942 Descending Atlanta Center
Wed 09:14:48 AM 35.1469 -80.9322 356° North 149 171 2,100 -812 Descending Atlanta Center
Wed 09:16:01 AM 35.1908 -80.9356 356° North 122 140 1,000 -904 Descending Atlanta Center

Login

Don't have an account? Register now (free) for customized features, flight alerts, and more!